Aberdeen, SD

5:39 AM CST on February 25, 2017 (GMT -0600)
St. Mary's Church | | Change Station
Active Advisory: Flood Warning

Elev 1302 ft 45.47 °N, 98.48 °W | Updated 17 seconds ago

Partly Cloudy
Partly Cloudy
18.1 °F
Feels Like 18 °F
N
2.0
Wind Variable Wind from SW
Gusts 3.0 mph

Today
High -- | Low -- °F
--% Chance of Precip.
Yesterday
High -- | Low -- °F
Precip. -- in
Pressure 30.10 in
Visibility 10.0 miles
Clouds Scattered Clouds 4500 ft
Windchill 18 °F
Dew Point 14 °F
Humidity 84%
Rainfall 0.00 in
Snow Depth Not available.
7:18 AM 6:15 PM
Waning Crescent, 2% visible
METAR KABR 251053Z AUTO 22004KT 10SM SCT045 M11/M13 A3003 RMK AO2 SLP191 T11111133
Pressure 30.10 in
Visibility 10.0 miles
Clouds Scattered Clouds 4500 ft
Windchill 18 °F
Dew Point 14 °F
Humidity 84%
Rainfall 0.00 in
Snow Depth Not available.
7:18 AM 6:15 PM
Waning Crescent, 2% visible
METAR KABR 251053Z AUTO 22004KT 10SM SCT045 M11/M13 A3003 RMK AO2 SLP191 T11111133

Get Your Daily Forecast Email!

Thanks for signing up!

Be on the lookout for a verification email in your inbox.

You'll start receiving the daily forecast at 8 AM.

×

10-Day Weather Forecast

Almanac

Astronomy

Feb. 25, 2017 Rise Set
Actual Time
Civil Twilight
Nautical Twilight
Astronomical Twilight
Moon
Length of Visible Light
Length of Day
Tomorrow will be .
, % of the Moon is Illuminated

Today's Extremes

State Highs State Lows

Community

WunderPhotos

Upload Photos

1,962,540 photos uploaded!

WunderBlog® & News

Nearby

Air Quality

  Air Quality AQ Index Pollutant
Not available.

Snow Depth

Station Depth Elevation

Earthquake Activity

City Distance Mag. Time & Date
Minimum magnitude displayed is 2.5.

Coastal Water Temperatures

Place Temperature

Stations

Nearby Weather Stations

Station Location Temp. Windchill Dew Point Humidity Wind Precip. Elev Updated Type
                   

Watches & Warnings

Flood Warning
Issued: 10:15 AM CST Feb. 24, 2017 – National Weather Service

The Flood Warning continues for
the James River near Columbia
* until further notice...
* at 10 am Friday the stage was 15.7 feet...
* minor flooding is occurring and minor flooding is forecast...
* flood stage is 13.0 feet...
* at 15.0 feet... significant amounts of agricultural lands are
flooded.




Lat... Lon 4594 9820 4563 9837 4552 9830 4552 9818
4563 9827 4594 9813